Adams, North Carolina
Current Conditions -  °F | °C
As of 9:35 AM on Tuesday 27 Jan 2015 (Local Time) from KTNB Reporting Station
Overcast Overcast  
Wind Chill: -13°   Ceiling: 10000
Heat Index: -5°   Visibility: 10mi
Dew Point: -10°   Wind: 16mph
Humidity: 72%   Direction: 300°WNW
Pressure: 29.77"   Gusts: 23mph
Location:  36.2085°N, 81.6605°W
Report Text: KTNB 271435Z AUTO 30014G20KT 10SM OVC100 M05/M10 A2977 RMK AO2 T10531097
Loading
Personal Weather Stations






























Interactive Weather Map New forecast layout! Learn more

10-Day Weather Forecast

Advertisements
Track Severe Weather on mobile